sensor_id;sensor_type;location;lat;lon;timestamp;P1;durP1;ratioP1;P2;durP2;ratioP2
71629;SDS011;59479;51.902;8.212;2023-11-21T00:02:01;9.60;;;3.50;;
71629;SDS011;59479;51.902;8.212;2023-11-21T00:04:26;5.77;;;3.27;;
71629;SDS011;59479;51.902;8.212;2023-11-21T00:06:52;8.47;;;4.00;;
71629;SDS011;59479;51.902;8.212;2023-11-21T00:09:18;10.40;;;4.00;;
71629;SDS011;59479;51.902;8.212;2023-11-21T00:11:44;8.30;;;3.90;;
71629;SDS011;59479;51.902;8.212;2023-11-21T00:14:13;9.75;;;3.67;;
71629;SDS011;59479;51.902;8.212;2023-11-21T00:16:40;8.13;;;3.70;;
71629;SDS011;59479;51.902;8.212;2023-11-21T00:19:06;6.97;;;3.35;;
71629;SDS011;59479;51.902;8.212;2023-11-21T00:21:31;6.70;;;3.40;;
71629;SDS011;59479;51.902;8.212;2023-11-21T00:23:57;9.93;;;4.13;;
71629;SDS011;59479;51.902;8.212;2023-11-21T00:26:22;6.60;;;3.93;;
71629;SDS011;59479;51.902;8.212;2023-11-21T00:28:49;6.57;;;3.50;;
71629;SDS011;59479;51.902;8.212;2023-11-21T00:31:14;11.50;;;4.32;;
71629;SDS011;59479;51.902;8.212;2023-11-21T00:33:39;8.00;;;3.97;;
71629;SDS011;59479;51.902;8.212;2023-11-21T00:36:05;7.97;;;4.03;;
71629;SDS011;59479;51.902;8.212;2023-11-21T00:38:37;8.70;;;4.03;;
71629;SDS011;59479;51.902;8.212;2023-11-21T00:41:04;8.20;;;4.53;;
71629;SDS011;59479;51.902;8.212;2023-11-21T00:43:30;10.20;;;4.30;;
71629;SDS011;59479;51.902;8.212;2023-11-21T00:45:56;8.70;;;4.77;;
71629;SDS011;59479;51.902;8.212;2023-11-21T00:48:21;8.80;;;4.70;;
71629;SDS011;59479;51.902;8.212;2023-11-21T00:50:46;8.67;;;3.77;;
71629;SDS011;59479;51.902;8.212;2023-11-21T00:53:12;5.97;;;3.60;;
71629;SDS011;59479;51.902;8.212;2023-11-21T00:55:37;9.93;;;4.13;;
71629;SDS011;59479;51.902;8.212;2023-11-21T00:58:05;9.27;;;4.07;;
71629;SDS011;59479;51.902;8.212;2023-11-21T01:00:31;7.00;;;4.15;;
71629;SDS011;59479;51.902;8.212;2023-11-21T01:02:57;8.75;;;4.00;;
71629;SDS011;59479;51.902;8.212;2023-11-21T01:05:23;8.90;;;4.87;;
71629;SDS011;59479;51.902;8.212;2023-11-21T01:07:48;7.07;;;4.17;;
71629;SDS011;59479;51.902;8.212;2023-11-21T01:10:13;8.60;;;4.17;;
71629;SDS011;59479;51.902;8.212;2023-11-21T01:12:39;7.50;;;4.17;;
71629;SDS011;59479;51.902;8.212;2023-11-21T01:15:05;6.30;;;3.73;;
71629;SDS011;59479;51.902;8.212;2023-11-21T01:17:33;12.23;;;3.85;;
71629;SDS011;59479;51.902;8.212;2023-11-21T01:19:59;7.93;;;3.47;;
71629;SDS011;59479;51.902;8.212;2023-11-21T01:22:25;8.80;;;4.53;;
71629;SDS011;59479;51.902;8.212;2023-11-21T01:24:54;9.10;;;3.85;;
71629;SDS011;59479;51.902;8.212;2023-11-21T01:27:19;7.78;;;3.95;;
71629;SDS011;59479;51.902;8.212;2023-11-21T01:29:45;10.40;;;4.13;;
71629;SDS011;59479;51.902;8.212;2023-11-21T01:32:10;9.33;;;4.47;;
71629;SDS011;59479;51.902;8.212;2023-11-21T01:34:36;8.75;;;4.50;;
71629;SDS011;59479;51.902;8.212;2023-11-21T01:37:02;9.02;;;3.80;;
71629;SDS011;59479;51.902;8.212;2023-11-21T01:39:29;8.73;;;4.38;;
71629;SDS011;59479;51.902;8.212;2023-11-21T01:41:55;8.10;;;4.33;;
71629;SDS011;59479;51.902;8.212;2023-11-21T01:44:20;9.20;;;4.80;;
71629;SDS011;59479;51.902;8.212;2023-11-21T01:46:45;10.25;;;4.45;;
71629;SDS011;59479;51.902;8.212;2023-11-21T01:49:12;11.23;;;4.67;;
71629;SDS011;59479;51.902;8.212;2023-11-21T01:51:40;15.52;;;4.68;;
71629;SDS011;59479;51.902;8.212;2023-11-21T01:54:08;12.27;;;4.53;;
71629;SDS011;59479;51.902;8.212;2023-11-21T01:56:33;7.77;;;4.33;;
71629;SDS011;59479;51.902;8.212;2023-11-21T01:58:59;11.52;;;5.57;;
71629;SDS011;59479;51.902;8.212;2023-11-21T02:01:25;9.10;;;4.43;;
71629;SDS011;59479;51.902;8.212;2023-11-21T02:03:51;7.30;;;3.60;;
71629;SDS011;59479;51.902;8.212;2023-11-21T02:06:16;10.73;;;4.83;;
71629;SDS011;59479;51.902;8.212;2023-11-21T02:08:43;11.00;;;4.68;;
71629;SDS011;59479;51.902;8.212;2023-11-21T02:11:09;7.88;;;3.88;;
71629;SDS011;59479;51.902;8.212;2023-11-21T02:13:37;7.87;;;4.07;;
71629;SDS011;59479;51.902;8.212;2023-11-21T02:16:03;6.57;;;3.35;;
71629;SDS011;59479;51.902;8.212;2023-11-21T02:18:30;6.90;;;3.90;;
71629;SDS011;59479;51.902;8.212;2023-11-21T02:20:56;9.47;;;4.67;;
71629;SDS011;59479;51.902;8.212;2023-11-21T02:23:21;8.00;;;4.03;;
71629;SDS011;59479;51.902;8.212;2023-11-21T02:25:48;7.05;;;3.88;;
71629;SDS011;59479;51.902;8.212;2023-11-21T02:28:13;7.87;;;4.13;;
71629;SDS011;59479;51.902;8.212;2023-11-21T02:30:41;7.87;;;4.37;;
71629;SDS011;59479;51.902;8.212;2023-11-21T02:33:07;10.95;;;4.88;;
71629;SDS011;59479;51.902;8.212;2023-11-21T02:35:32;8.57;;;4.40;;
71629;SDS011;59479;51.902;8.212;2023-11-21T02:37:58;10.20;;;4.33;;
71629;SDS011;59479;51.902;8.212;2023-11-21T02:40:23;7.63;;;4.63;;
71629;SDS011;59479;51.902;8.212;2023-11-21T02:42:50;7.87;;;4.07;;
71629;SDS011;59479;51.902;8.212;2023-11-21T02:45:21;10.02;;;4.43;;
71629;SDS011;59479;51.902;8.212;2023-11-21T02:47:47;8.93;;;4.35;;
71629;SDS011;59479;51.902;8.212;2023-11-21T02:50:14;11.45;;;4.63;;
71629;SDS011;59479;51.902;8.212;2023-11-21T02:52:39;13.60;;;4.60;;
71629;SDS011;59479;51.902;8.212;2023-11-21T02:55:05;7.43;;;4.30;;
71629;SDS011;59479;51.902;8.212;2023-11-21T02:57:32;9.15;;;4.43;;
71629;SDS011;59479;51.902;8.212;2023-11-21T02:59:58;8.65;;;4.55;;
71629;SDS011;59479;51.902;8.212;2023-11-21T03:02:24;9.50;;;4.63;;
71629;SDS011;59479;51.902;8.212;2023-11-21T03:04:50;7.77;;;4.33;;
71629;SDS011;59479;51.902;8.212;2023-11-21T03:07:16;6.90;;;4.53;;
71629;SDS011;59479;51.902;8.212;2023-11-21T03:09:42;9.32;;;4.82;;
71629;SDS011;59479;51.902;8.212;2023-11-21T03:12:07;11.67;;;4.77;;
71629;SDS011;59479;51.902;8.212;2023-11-21T03:14:34;9.80;;;4.55;;
71629;SDS011;59479;51.902;8.212;2023-11-21T03:17:00;8.10;;;4.13;;
71629;SDS011;59479;51.902;8.212;2023-11-21T03:19:25;12.23;;;4.80;;
71629;SDS011;59479;51.902;8.212;2023-11-21T03:21:51;9.83;;;4.50;;
71629;SDS011;59479;51.902;8.212;2023-11-21T03:24:18;8.95;;;4.45;;
71629;SDS011;59479;51.902;8.212;2023-11-21T03:26:45;11.50;;;5.28;;
71629;SDS011;59479;51.902;8.212;2023-11-21T03:29:11;8.73;;;3.92;;
71629;SDS011;59479;51.902;8.212;2023-11-21T03:31:37;10.70;;;4.30;;
71629;SDS011;59479;51.902;8.212;2023-11-21T03:34:02;8.67;;;4.73;;
71629;SDS011;59479;51.902;8.212;2023-11-21T03:36:28;10.57;;;5.28;;
71629;SDS011;59479;51.902;8.212;2023-11-21T03:38:54;9.57;;;4.80;;
71629;SDS011;59479;51.902;8.212;2023-11-21T03:41:20;11.48;;;5.45;;
71629;SDS011;59479;51.902;8.212;2023-11-21T03:43:45;10.77;;;4.73;;
71629;SDS011;59479;51.902;8.212;2023-11-21T03:46:11;8.67;;;4.87;;
71629;SDS011;59479;51.902;8.212;2023-11-21T03:48:37;16.05;;;5.25;;
71629;SDS011;59479;51.902;8.212;2023-11-21T03:51:03;9.48;;;4.97;;
71629;SDS011;59479;51.902;8.212;2023-11-21T03:53:28;10.13;;;4.53;;
71629;SDS011;59479;51.902;8.212;2023-11-21T03:55:53;11.77;;;4.70;;
71629;SDS011;59479;51.902;8.212;2023-11-21T03:58:19;10.60;;;4.23;;
71629;SDS011;59479;51.902;8.212;2023-11-21T04:00:44;9.67;;;4.43;;
71629;SDS011;59479;51.902;8.212;2023-11-21T04:03:09;8.87;;;5.17;;
71629;SDS011;59479;51.902;8.212;2023-11-21T04:05:35;12.07;;;4.90;;
71629;SDS011;59479;51.902;8.212;2023-11-21T04:08:00;7.72;;;4.30;;
71629;SDS011;59479;51.902;8.212;2023-11-21T04:10:26;11.90;;;4.53;;
71629;SDS011;59479;51.902;8.212;2023-11-21T04:12:51;14.27;;;5.47;;
71629;SDS011;59479;51.902;8.212;2023-11-21T04:15:16;8.47;;;4.90;;
71629;SDS011;59479;51.902;8.212;2023-11-21T04:17:42;9.80;;;5.20;;
71629;SDS011;59479;51.902;8.212;2023-11-21T04:20:08;9.20;;;4.33;;
71629;SDS011;59479;51.902;8.212;2023-11-21T04:22:37;10.55;;;4.93;;
71629;SDS011;59479;51.902;8.212;2023-11-21T04:25:08;10.57;;;5.50;;
71629;SDS011;59479;51.902;8.212;2023-11-21T04:27:34;10.27;;;5.07;;
71629;SDS011;59479;51.902;8.212;2023-11-21T04:29:59;9.53;;;5.07;;
71629;SDS011;59479;51.902;8.212;2023-11-21T04:32:25;9.90;;;5.23;;
71629;SDS011;59479;51.902;8.212;2023-11-21T04:34:50;10.88;;;5.20;;
71629;SDS011;59479;51.902;8.212;2023-11-21T04:37:15;11.23;;;5.33;;
71629;SDS011;59479;51.902;8.212;2023-11-21T04:39:41;8.97;;;5.07;;
71629;SDS011;59479;51.902;8.212;2023-11-21T04:42:06;9.73;;;5.53;;
71629;SDS011;59479;51.902;8.212;2023-11-21T04:44:31;9.80;;;4.87;;
71629;SDS011;59479;51.902;8.212;2023-11-21T04:46:57;10.73;;;5.33;;
71629;SDS011;59479;51.902;8.212;2023-11-21T04:49:22;12.70;;;6.33;;
71629;SDS011;59479;51.902;8.212;2023-11-21T04:51:47;9.97;;;5.27;;
71629;SDS011;59479;51.902;8.212;2023-11-21T04:54:13;10.83;;;4.83;;
71629;SDS011;59479;51.902;8.212;2023-11-21T04:56:38;8.75;;;5.03;;
71629;SDS011;59479;51.902;8.212;2023-11-21T04:59:03;10.00;;;5.10;;
71629;SDS011;59479;51.902;8.212;2023-11-21T05:01:29;11.27;;;5.43;;
71629;SDS011;59479;51.902;8.212;2023-11-21T05:03:55;12.82;;;5.18;;
71629;SDS011;59479;51.902;8.212;2023-11-21T05:06:22;10.50;;;5.33;;
71629;SDS011;59479;51.902;8.212;2023-11-21T05:08:47;14.10;;;6.40;;
71629;SDS011;59479;51.902;8.212;2023-11-21T05:11:12;10.90;;;5.90;;
71629;SDS011;59479;51.902;8.212;2023-11-21T05:13:48;10.27;;;5.73;;
71629;SDS011;59479;51.902;8.212;2023-11-21T05:16:14;10.10;;;5.55;;
71629;SDS011;59479;51.902;8.212;2023-11-21T05:18:40;10.15;;;5.60;;
71629;SDS011;59479;51.902;8.212;2023-11-21T05:21:05;10.30;;;5.40;;
71629;SDS011;59479;51.902;8.212;2023-11-21T05:23:30;11.53;;;6.00;;
71629;SDS011;59479;51.902;8.212;2023-11-21T05:25:56;10.73;;;5.83;;
71629;SDS011;59479;51.902;8.212;2023-11-21T05:28:22;11.60;;;6.47;;
71629;SDS011;59479;51.902;8.212;2023-11-21T05:30:47;9.97;;;5.53;;
71629;SDS011;59479;51.902;8.212;2023-11-21T05:33:14;10.70;;;4.70;;
71629;SDS011;59479;51.902;8.212;2023-11-21T05:35:39;12.87;;;5.70;;
71629;SDS011;59479;51.902;8.212;2023-11-21T05:38:04;15.60;;;5.83;;
71629;SDS011;59479;51.902;8.212;2023-11-21T05:40:30;11.73;;;6.10;;
71629;SDS011;59479;51.902;8.212;2023-11-21T05:42:55;12.23;;;5.20;;
71629;SDS011;59479;51.902;8.212;2023-11-21T05:45:21;13.80;;;5.90;;
71629;SDS011;59479;51.902;8.212;2023-11-21T05:47:46;10.48;;;5.72;;
71629;SDS011;59479;51.902;8.212;2023-11-21T05:50:12;9.37;;;5.30;;
71629;SDS011;59479;51.902;8.212;2023-11-21T05:52:45;10.18;;;5.05;;
71629;SDS011;59479;51.902;8.212;2023-11-21T05:55:11;13.47;;;5.00;;
71629;SDS011;59479;51.902;8.212;2023-11-21T05:57:38;8.77;;;4.35;;
71629;SDS011;59479;51.902;8.212;2023-11-21T06:02:50;9.95;;;5.60;;
71629;SDS011;59479;51.902;8.212;2023-11-21T06:05:18;13.20;;;5.40;;
71629;SDS011;59479;51.902;8.212;2023-11-21T06:07:51;16.13;;;5.47;;
71629;SDS011;59479;51.902;8.212;2023-11-21T06:10:19;10.93;;;5.22;;
71629;SDS011;59479;51.902;8.212;2023-11-21T06:12:45;14.35;;;6.13;;
71629;SDS011;59479;51.902;8.212;2023-11-21T06:15:10;9.73;;;5.43;;
71629;SDS011;59479;51.902;8.212;2023-11-21T06:17:40;9.90;;;5.40;;
71629;SDS011;59479;51.902;8.212;2023-11-21T06:20:07;9.77;;;5.45;;
71629;SDS011;59479;51.902;8.212;2023-11-21T06:22:39;10.38;;;5.45;;
71629;SDS011;59479;51.902;8.212;2023-11-21T06:25:06;12.87;;;5.60;;
71629;SDS011;59479;51.902;8.212;2023-11-21T06:27:33;10.95;;;5.38;;
71629;SDS011;59479;51.902;8.212;2023-11-21T06:29:59;9.77;;;5.25;;
71629;SDS011;59479;51.902;8.212;2023-11-21T06:32:24;15.87;;;6.50;;
71629;SDS011;59479;51.902;8.212;2023-11-21T06:34:51;11.35;;;5.60;;
71629;SDS011;59479;51.902;8.212;2023-11-21T06:37:19;17.30;;;5.78;;
71629;SDS011;59479;51.902;8.212;2023-11-21T06:39:47;11.45;;;6.13;;
71629;SDS011;59479;51.902;8.212;2023-11-21T06:42:13;10.87;;;5.63;;
71629;SDS011;59479;51.902;8.212;2023-11-21T06:44:40;10.55;;;5.15;;
71629;SDS011;59479;51.902;8.212;2023-11-21T06:47:06;9.90;;;5.93;;
71629;SDS011;59479;51.902;8.212;2023-11-21T06:49:32;11.80;;;5.50;;
71629;SDS011;59479;51.902;8.212;2023-11-21T06:51:57;13.27;;;5.67;;
71629;SDS011;59479;51.902;8.212;2023-11-21T06:54:23;15.55;;;6.07;;
71629;SDS011;59479;51.902;8.212;2023-11-21T06:56:49;10.02;;;5.00;;
71629;SDS011;59479;51.902;8.212;2023-11-21T06:59:15;11.98;;;5.75;;
71629;SDS011;59479;51.902;8.212;2023-11-21T07:01:40;11.83;;;5.77;;
71629;SDS011;59479;51.902;8.212;2023-11-21T07:04:06;11.48;;;5.32;;
71629;SDS011;59479;51.902;8.212;2023-11-21T07:06:32;12.87;;;5.80;;
71629;SDS011;59479;51.902;8.212;2023-11-21T07:08:57;10.65;;;5.03;;
71629;SDS011;59479;51.902;8.212;2023-11-21T07:11:23;13.97;;;6.10;;
71629;SDS011;59479;51.902;8.212;2023-11-21T07:13:49;16.33;;;6.82;;
71629;SDS011;59479;51.902;8.212;2023-11-21T07:16:14;10.43;;;5.55;;
71629;SDS011;59479;51.902;8.212;2023-11-21T07:18:40;12.73;;;5.43;;
71629;SDS011;59479;51.902;8.212;2023-11-21T07:21:06;12.02;;;6.47;;
71629;SDS011;59479;51.902;8.212;2023-11-21T07:23:33;15.20;;;6.47;;
71629;SDS011;59479;51.902;8.212;2023-11-21T07:25:58;13.07;;;5.88;;
71629;SDS011;59479;51.902;8.212;2023-11-21T07:28:24;12.73;;;5.90;;
71629;SDS011;59479;51.902;8.212;2023-11-21T07:30:50;11.27;;;6.40;;
71629;SDS011;59479;51.902;8.212;2023-11-21T07:33:16;15.43;;;6.53;;
71629;SDS011;59479;51.902;8.212;2023-11-21T07:35:42;14.55;;;6.45;;
71629;SDS011;59479;51.902;8.212;2023-11-21T07:38:07;14.13;;;6.53;;
71629;SDS011;59479;51.902;8.212;2023-11-21T07:40:33;20.17;;;6.43;;
71629;SDS011;59479;51.902;8.212;2023-11-21T07:42:58;15.07;;;7.03;;
71629;SDS011;59479;51.902;8.212;2023-11-21T07:45:24;14.02;;;6.95;;
71629;SDS011;59479;51.902;8.212;2023-11-21T07:47:52;11.57;;;6.33;;
71629;SDS011;59479;51.902;8.212;2023-11-21T07:50:18;16.20;;;6.13;;
71629;SDS011;59479;51.902;8.212;2023-11-21T07:52:45;16.60;;;7.13;;
71629;SDS011;59479;51.902;8.212;2023-11-21T07:55:10;17.63;;;7.23;;
71629;SDS011;59479;51.902;8.212;2023-11-21T07:57:36;15.73;;;6.93;;
71629;SDS011;59479;51.902;8.212;2023-11-21T08:00:01;15.87;;;7.47;;
71629;SDS011;59479;51.902;8.212;2023-11-21T08:02:28;16.45;;;6.57;;
71629;SDS011;59479;51.902;8.212;2023-11-21T08:04:54;17.73;;;6.47;;
71629;SDS011;59479;51.902;8.212;2023-11-21T08:07:21;14.63;;;6.43;;
71629;SDS011;59479;51.902;8.212;2023-11-21T08:09:47;16.67;;;7.07;;
71629;SDS011;59479;51.902;8.212;2023-11-21T08:12:15;12.23;;;6.30;;
71629;SDS011;59479;51.902;8.212;2023-11-21T08:14:40;20.23;;;6.80;;
71629;SDS011;59479;51.902;8.212;2023-11-21T08:17:05;17.63;;;6.53;;
71629;SDS011;59479;51.902;8.212;2023-11-21T08:19:31;15.70;;;7.10;;
71629;SDS011;59479;51.902;8.212;2023-11-21T08:21:57;18.42;;;7.15;;
71629;SDS011;59479;51.902;8.212;2023-11-21T08:24:24;16.83;;;7.40;;
71629;SDS011;59479;51.902;8.212;2023-11-21T08:26:49;15.97;;;6.10;;
71629;SDS011;59479;51.902;8.212;2023-11-21T08:29:16;20.33;;;7.47;;
71629;SDS011;59479;51.902;8.212;2023-11-21T08:31:41;22.67;;;7.67;;
71629;SDS011;59479;51.902;8.212;2023-11-21T08:34:07;19.33;;;7.47;;
71629;SDS011;59479;51.902;8.212;2023-11-21T08:36:33;17.67;;;6.72;;
71629;SDS011;59479;51.902;8.212;2023-11-21T08:38:59;15.67;;;6.40;;
71629;SDS011;59479;51.902;8.212;2023-11-21T08:41:24;21.50;;;7.97;;
71629;SDS011;59479;51.902;8.212;2023-11-21T08:43:50;21.20;;;7.40;;
71629;SDS011;59479;51.902;8.212;2023-11-21T08:46:16;18.83;;;7.20;;
71629;SDS011;59479;51.902;8.212;2023-11-21T08:48:43;17.85;;;6.15;;
71629;SDS011;59479;51.902;8.212;2023-11-21T08:51:10;17.00;;;6.40;;
71629;SDS011;59479;51.902;8.212;2023-11-21T08:53:40;20.88;;;7.43;;
71629;SDS011;59479;51.902;8.212;2023-11-21T08:56:16;22.08;;;7.40;;
71629;SDS011;59479;51.902;8.212;2023-11-21T08:58:44;20.10;;;7.73;;
71629;SDS011;59479;51.902;8.212;2023-11-21T09:01:10;15.20;;;6.72;;
71629;SDS011;59479;51.902;8.212;2023-11-21T09:03:40;16.00;;;6.97;;
71629;SDS011;59479;51.902;8.212;2023-11-21T09:06:29;17.35;;;6.88;;
71629;SDS011;59479;51.902;8.212;2023-11-21T09:08:55;18.93;;;7.43;;
71629;SDS011;59479;51.902;8.212;2023-11-21T09:11:21;14.93;;;6.20;;
71629;SDS011;59479;51.902;8.212;2023-11-21T09:13:47;16.15;;;6.70;;
71629;SDS011;59479;51.902;8.212;2023-11-21T09:16:14;15.40;;;6.27;;
71629;SDS011;59479;51.902;8.212;2023-11-21T09:18:41;18.42;;;5.80;;
71629;SDS011;59479;51.902;8.212;2023-11-21T09:21:07;17.35;;;6.90;;
71629;SDS011;59479;51.902;8.212;2023-11-21T09:23:34;13.17;;;5.80;;
71629;SDS011;59479;51.902;8.212;2023-11-21T09:26:01;16.00;;;6.43;;
71629;SDS011;59479;51.902;8.212;2023-11-21T09:28:27;11.90;;;5.18;;
71629;SDS011;59479;51.902;8.212;2023-11-21T09:30:54;15.07;;;5.53;;
71629;SDS011;59479;51.902;8.212;2023-11-21T09:33:20;12.27;;;6.10;;
71629;SDS011;59479;51.902;8.212;2023-11-21T09:35:48;12.63;;;5.28;;
71629;SDS011;59479;51.902;8.212;2023-11-21T09:38:15;16.48;;;5.60;;
71629;SDS011;59479;51.902;8.212;2023-11-21T09:40:41;17.83;;;5.37;;
71629;SDS011;59479;51.902;8.212;2023-11-21T09:43:15;13.93;;;5.57;;
71629;SDS011;59479;51.902;8.212;2023-11-21T09:45:44;14.00;;;5.78;;
71629;SDS011;59479;51.902;8.212;2023-11-21T09:48:12;14.70;;;5.32;;
71629;SDS011;59479;51.902;8.212;2023-11-21T09:50:41;12.20;;;5.20;;
71629;SDS011;59479;51.902;8.212;2023-11-21T09:55:38;11.57;;;4.57;;
71629;SDS011;59479;51.902;8.212;2023-11-21T09:58:21;13.20;;;5.60;;
71629;SDS011;59479;51.902;8.212;2023-11-21T10:00:52;9.88;;;4.90;;
71629;SDS011;59479;51.902;8.212;2023-11-21T10:03:19;13.48;;;5.18;;
71629;SDS011;59479;51.902;8.212;2023-11-21T10:05:45;12.17;;;4.97;;
71629;SDS011;59479;51.902;8.212;2023-11-21T10:08:13;11.65;;;5.85;;
71629;SDS011;59479;51.902;8.212;2023-11-21T10:10:42;10.80;;;4.57;;
71629;SDS011;59479;51.902;8.212;2023-11-21T10:13:13;12.18;;;4.70;;
71629;SDS011;59479;51.902;8.212;2023-11-21T10:15:42;10.40;;;4.72;;
71629;SDS011;59479;51.902;8.212;2023-11-21T10:18:15;10.13;;;4.28;;
71629;SDS011;59479;51.902;8.212;2023-11-21T10:20:43;9.48;;;4.45;;
71629;SDS011;59479;51.902;8.212;2023-11-21T10:23:17;8.03;;;3.77;;
71629;SDS011;59479;51.902;8.212;2023-11-21T10:25:44;8.60;;;3.78;;
71629;SDS011;59479;51.902;8.212;2023-11-21T10:28:10;8.88;;;3.97;;
71629;SDS011;59479;51.902;8.212;2023-11-21T10:30:36;9.13;;;4.00;;
71629;SDS011;59479;51.902;8.212;2023-11-21T10:33:06;9.65;;;4.03;;
71629;SDS011;59479;51.902;8.212;2023-11-21T10:35:52;7.40;;;4.20;;
71629;SDS011;59479;51.902;8.212;2023-11-21T10:38:20;8.37;;;3.90;;
71629;SDS011;59479;51.902;8.212;2023-11-21T10:40:49;9.05;;;4.05;;
71629;SDS011;59479;51.902;8.212;2023-11-21T10:43:16;9.38;;;3.92;;
71629;SDS011;59479;51.902;8.212;2023-11-21T10:45:45;12.43;;;3.90;;
71629;SDS011;59479;51.902;8.212;2023-11-21T10:48:11;8.63;;;3.40;;
71629;SDS011;59479;51.902;8.212;2023-11-21T10:50:42;9.23;;;4.07;;
71629;SDS011;59479;51.902;8.212;2023-11-21T10:53:09;9.82;;;3.67;;
71629;SDS011;59479;51.902;8.212;2023-11-21T10:56:05;9.10;;;3.50;;
71629;SDS011;59479;51.902;8.212;2023-11-21T10:58:53;9.82;;;3.92;;
71629;SDS011;59479;51.902;8.212;2023-11-21T11:01:57;11.57;;;3.92;;
71629;SDS011;59479;51.902;8.212;2023-11-21T11:04:38;8.52;;;3.85;;
71629;SDS011;59479;51.902;8.212;2023-11-21T11:07:04;8.82;;;3.85;;
71629;SDS011;59479;51.902;8.212;2023-11-21T11:09:35;6.97;;;2.60;;
71629;SDS011;59479;51.902;8.212;2023-11-21T11:12:01;6.80;;;2.78;;
71629;SDS011;59479;51.902;8.212;2023-11-21T11:14:30;7.33;;;4.03;;
71629;SDS011;59479;51.902;8.212;2023-11-21T11:16:57;7.32;;;3.38;;
71629;SDS011;59479;51.902;8.212;2023-11-21T11:19:25;6.97;;;3.05;;
71629;SDS011;59479;51.902;8.212;2023-11-21T11:28:04;6.50;;;2.65;;
71629;SDS011;59479;51.902;8.212;2023-11-21T11:36:41;6.03;;;2.83;;
71629;SDS011;59479;51.902;8.212;2023-11-21T11:39:27;5.60;;;2.93;;
71629;SDS011;59479;51.902;8.212;2023-11-21T11:42:02;7.15;;;2.83;;
71629;SDS011;59479;51.902;8.212;2023-11-21T11:47:16;5.93;;;2.88;;
71629;SDS011;59479;51.902;8.212;2023-11-21T11:50:07;5.22;;;2.78;;
71629;SDS011;59479;51.902;8.212;2023-11-21T11:52:46;6.00;;;2.83;;
71629;SDS011;59479;51.902;8.212;2023-11-21T11:55:15;5.82;;;2.85;;
71629;SDS011;59479;51.902;8.212;2023-11-21T11:57:56;5.72;;;2.90;;
71629;SDS011;59479;51.902;8.212;2023-11-21T12:02:54;7.68;;;3.13;;
71629;SDS011;59479;51.902;8.212;2023-11-21T12:05:25;5.72;;;2.63;;
71629;SDS011;59479;51.902;8.212;2023-11-21T12:07:56;6.40;;;2.75;;
71629;SDS011;59479;51.902;8.212;2023-11-21T12:10:30;6.57;;;3.00;;
71629;SDS011;59479;51.902;8.212;2023-11-21T12:13:23;6.07;;;2.88;;
71629;SDS011;59479;51.902;8.212;2023-11-21T12:15:56;6.95;;;3.15;;
71629;SDS011;59479;51.902;8.212;2023-11-21T12:18:35;7.47;;;3.22;;
71629;SDS011;59479;51.902;8.212;2023-11-21T12:45:31;7.20;;;3.30;;
71629;SDS011;59479;51.902;8.212;2023-11-21T12:49:19;7.55;;;3.20;;
71629;SDS011;59479;51.902;8.212;2023-11-21T13:05:05;11.13;;;3.87;;
71629;SDS011;59479;51.902;8.212;2023-11-21T13:36:38;7.13;;;3.38;;
71629;SDS011;59479;51.902;8.212;2023-11-21T13:40:19;6.95;;;3.63;;
71629;SDS011;59479;51.902;8.212;2023-11-21T13:47:19;8.82;;;3.75;;
71629;SDS011;59479;51.902;8.212;2023-11-21T13:49:59;12.07;;;4.10;;
71629;SDS011;59479;51.902;8.212;2023-11-21T13:56:53;9.68;;;4.07;;
71629;SDS011;59479;51.902;8.212;2023-11-21T13:59:21;6.87;;;3.23;;
71629;SDS011;59479;51.902;8.212;2023-11-21T14:01:50;7.28;;;3.70;;
71629;SDS011;59479;51.902;8.212;2023-11-21T14:04:25;6.60;;;3.05;;
71629;SDS011;59479;51.902;8.212;2023-11-21T14:07:15;6.78;;;3.22;;
71629;SDS011;59479;51.902;8.212;2023-11-21T14:10:10;7.32;;;2.92;;
71629;SDS011;59479;51.902;8.212;2023-11-21T14:12:41;5.53;;;2.67;;
71629;SDS011;59479;51.902;8.212;2023-11-21T14:15:08;7.20;;;3.13;;
71629;SDS011;59479;51.902;8.212;2023-11-21T14:17:35;7.10;;;3.15;;
71629;SDS011;59479;51.902;8.212;2023-11-21T14:20:03;7.22;;;3.22;;
71629;SDS011;59479;51.902;8.212;2023-11-21T14:23:03;7.30;;;2.97;;
71629;SDS011;59479;51.902;8.212;2023-11-21T14:25:40;6.67;;;2.73;;
71629;SDS011;59479;51.902;8.212;2023-11-21T14:28:08;5.55;;;2.78;;
71629;SDS011;59479;51.902;8.212;2023-11-21T14:30:38;6.95;;;3.00;;
71629;SDS011;59479;51.902;8.212;2023-11-21T14:33:24;7.15;;;2.88;;
71629;SDS011;59479;51.902;8.212;2023-11-21T14:35:50;6.60;;;3.00;;
71629;SDS011;59479;51.902;8.212;2023-11-21T14:38:16;8.90;;;3.08;;
71629;SDS011;59479;51.902;8.212;2023-11-21T14:41:02;6.65;;;2.80;;
71629;SDS011;59479;51.902;8.212;2023-11-21T14:43:27;6.07;;;3.23;;
71629;SDS011;59479;51.902;8.212;2023-11-21T14:45:56;7.40;;;4.57;;
71629;SDS011;59479;51.902;8.212;2023-11-21T14:48:24;6.20;;;3.20;;
71629;SDS011;59479;51.902;8.212;2023-11-21T14:51:10;8.13;;;3.40;;
71629;SDS011;59479;51.902;8.212;2023-11-21T14:53:55;7.10;;;2.97;;
71629;SDS011;59479;51.902;8.212;2023-11-21T14:56:32;6.10;;;3.13;;
71629;SDS011;59479;51.902;8.212;2023-11-21T14:59:02;5.85;;;3.22;;
71629;SDS011;59479;51.902;8.212;2023-11-21T15:01:37;7.13;;;3.10;;
71629;SDS011;59479;51.902;8.212;2023-11-21T15:04:23;7.57;;;3.07;;
71629;SDS011;59479;51.902;8.212;2023-11-21T15:06:58;6.60;;;3.05;;
71629;SDS011;59479;51.902;8.212;2023-11-21T15:09:24;9.50;;;3.38;;
71629;SDS011;59479;51.902;8.212;2023-11-21T15:11:59;6.90;;;3.33;;
71629;SDS011;59479;51.902;8.212;2023-11-21T15:14:44;7.40;;;3.30;;
71629;SDS011;59479;51.902;8.212;2023-11-21T15:17:12;5.57;;;3.33;;
71629;SDS011;59479;51.902;8.212;2023-11-21T15:19:44;7.55;;;3.47;;
71629;SDS011;59479;51.902;8.212;2023-11-21T15:22:10;6.22;;;3.45;;
71629;SDS011;59479;51.902;8.212;2023-11-21T15:24:40;8.27;;;3.08;;
71629;SDS011;59479;51.902;8.212;2023-11-21T15:27:07;4.80;;;2.80;;
71629;SDS011;59479;51.902;8.212;2023-11-21T15:29:32;5.53;;;2.92;;
71629;SDS011;59479;51.902;8.212;2023-11-21T15:31:59;15.43;;;3.10;;
71629;SDS011;59479;51.902;8.212;2023-11-21T15:34:25;38.93;;;4.63;;
71629;SDS011;59479;51.902;8.212;2023-11-21T15:36:51;37.85;;;4.15;;
71629;SDS011;59479;51.902;8.212;2023-11-21T15:39:19;57.83;;;6.30;;
71629;SDS011;59479;51.902;8.212;2023-11-21T15:41:47;53.58;;;5.13;;
71629;SDS011;59479;51.902;8.212;2023-11-21T15:44:12;50.00;;;5.40;;
71629;SDS011;59479;51.902;8.212;2023-11-21T15:46:39;47.83;;;5.38;;
71629;SDS011;59479;51.902;8.212;2023-11-21T15:49:07;15.13;;;3.55;;
71629;SDS011;59479;51.902;8.212;2023-11-21T15:51:37;6.85;;;3.42;;
71629;SDS011;59479;51.902;8.212;2023-11-21T15:54:18;41.40;;;4.63;;
71629;SDS011;59479;51.902;8.212;2023-11-21T15:56:49;71.43;;;6.28;;
71629;SDS011;59479;51.902;8.212;2023-11-21T15:59:15;64.70;;;5.95;;
71629;SDS011;59479;51.902;8.212;2023-11-21T16:01:42;31.27;;;4.22;;
71629;SDS011;59479;51.902;8.212;2023-11-21T16:04:10;36.17;;;5.13;;
71629;SDS011;59479;51.902;8.212;2023-11-21T16:06:36;37.23;;;5.43;;
71629;SDS011;59479;51.902;8.212;2023-11-21T16:09:12;33.60;;;4.82;;
71629;SDS011;59479;51.902;8.212;2023-11-21T16:11:48;54.92;;;5.65;;
71629;SDS011;59479;51.902;8.212;2023-11-21T16:14:22;36.80;;;4.55;;
71629;SDS011;59479;51.902;8.212;2023-11-21T16:16:51;37.65;;;5.00;;
71629;SDS011;59479;51.902;8.212;2023-11-21T16:19:17;52.47;;;5.73;;
71629;SDS011;59479;51.902;8.212;2023-11-21T16:21:52;32.05;;;4.72;;
71629;SDS011;59479;51.902;8.212;2023-11-21T16:24:18;41.35;;;4.97;;
71629;SDS011;59479;51.902;8.212;2023-11-21T16:27:04;38.60;;;4.10;;
71629;SDS011;59479;51.902;8.212;2023-11-21T16:29:30;58.53;;;6.68;;